sensor_id;sensor_type;location;lat;lon;timestamp;P1;durP1;ratioP1;P2;durP2;ratioP2
60426;SDS011;46274;47.168;27.604;2022-08-19T00:01:34;11.68;;;8.43;;
60426;SDS011;46274;47.168;27.604;2022-08-19T00:07:38;13.07;;;8.73;;
60426;SDS011;46274;47.168;27.604;2022-08-19T00:13:40;13.05;;;8.55;;
60426;SDS011;46274;47.168;27.604;2022-08-19T00:19:42;9.45;;;7.70;;
60426;SDS011;46274;47.168;27.604;2022-08-19T00:25:44;13.07;;;8.35;;
60426;SDS011;46274;47.168;27.604;2022-08-19T00:31:49;11.55;;;8.73;;
60426;SDS011;46274;47.168;27.604;2022-08-19T00:37:54;8.82;;;7.40;;
60426;SDS011;46274;47.168;27.604;2022-08-19T00:43:58;10.73;;;8.55;;
60426;SDS011;46274;47.168;27.604;2022-08-19T00:50:06;12.25;;;7.65;;
60426;SDS011;46274;47.168;27.604;2022-08-19T00:56:09;10.32;;;8.10;;
60426;SDS011;46274;47.168;27.604;2022-08-19T01:02:12;9.30;;;7.57;;
60426;SDS011;46274;47.168;27.604;2022-08-19T01:08:14;10.77;;;8.40;;
60426;SDS011;46274;47.168;27.604;2022-08-19T01:14:18;10.23;;;7.95;;
60426;SDS011;46274;47.168;27.604;2022-08-19T01:20:21;11.40;;;8.57;;
60426;SDS011;46274;47.168;27.604;2022-08-19T01:26:25;11.00;;;8.13;;
60426;SDS011;46274;47.168;27.604;2022-08-19T01:32:27;11.32;;;7.70;;
60426;SDS011;46274;47.168;27.604;2022-08-19T01:38:35;10.10;;;8.00;;
60426;SDS011;46274;47.168;27.604;2022-08-19T01:44:44;10.05;;;7.40;;
60426;SDS011;46274;47.168;27.604;2022-08-19T01:50:46;10.23;;;7.55;;
60426;SDS011;46274;47.168;27.604;2022-08-19T01:56:50;11.43;;;8.35;;
60426;SDS011;46274;47.168;27.604;2022-08-19T02:02:54;10.45;;;7.68;;
60426;SDS011;46274;47.168;27.604;2022-08-19T02:08:56;9.15;;;7.50;;
60426;SDS011;46274;47.168;27.604;2022-08-19T02:14:58;10.95;;;7.82;;
60426;SDS011;46274;47.168;27.604;2022-08-19T02:21:01;9.48;;;7.28;;
60426;SDS011;46274;47.168;27.604;2022-08-19T02:27:02;10.13;;;7.82;;
60426;SDS011;46274;47.168;27.604;2022-08-19T02:33:06;9.38;;;7.50;;
60426;SDS011;46274;47.168;27.604;2022-08-19T02:39:07;9.43;;;7.85;;
60426;SDS011;46274;47.168;27.604;2022-08-19T02:45:10;8.48;;;6.72;;
60426;SDS011;46274;47.168;27.604;2022-08-19T02:51:15;10.05;;;6.82;;
60426;SDS011;46274;47.168;27.604;2022-08-19T02:57:22;10.52;;;7.35;;
60426;SDS011;46274;47.168;27.604;2022-08-19T03:03:24;7.88;;;6.78;;
60426;SDS011;46274;47.168;27.604;2022-08-19T03:09:26;10.00;;;7.20;;
60426;SDS011;46274;47.168;27.604;2022-08-19T03:15:27;9.75;;;8.00;;
60426;SDS011;46274;47.168;27.604;2022-08-19T03:21:30;12.90;;;6.85;;
60426;SDS011;46274;47.168;27.604;2022-08-19T03:27:33;10.38;;;7.50;;
60426;SDS011;46274;47.168;27.604;2022-08-19T03:33:37;8.52;;;6.75;;
60426;SDS011;46274;47.168;27.604;2022-08-19T03:39:40;9.10;;;7.20;;
60426;SDS011;46274;47.168;27.604;2022-08-19T03:45:43;9.25;;;7.70;;
60426;SDS011;46274;47.168;27.604;2022-08-19T03:51:46;10.88;;;7.60;;
60426;SDS011;46274;47.168;27.604;2022-08-19T03:57:49;9.13;;;7.03;;
60426;SDS011;46274;47.168;27.604;2022-08-19T04:03:51;9.38;;;7.38;;
60426;SDS011;46274;47.168;27.604;2022-08-19T04:09:54;9.88;;;7.88;;
60426;SDS011;46274;47.168;27.604;2022-08-19T04:15:56;8.38;;;6.75;;
60426;SDS011;46274;47.168;27.604;2022-08-19T04:21:58;10.30;;;6.68;;
60426;SDS011;46274;47.168;27.604;2022-08-19T04:27:59;10.27;;;7.55;;
60426;SDS011;46274;47.168;27.604;2022-08-19T04:34:03;9.13;;;7.35;;
60426;SDS011;46274;47.168;27.604;2022-08-19T04:40:08;9.00;;;7.00;;
60426;SDS011;46274;47.168;27.604;2022-08-19T04:46:29;30.77;;;11.30;;
60426;SDS011;46274;47.168;27.604;2022-08-19T04:52:51;21.90;;;12.52;;
60426;SDS011;46274;47.168;27.604;2022-08-19T04:58:55;27.20;;;12.02;;
60426;SDS011;46274;47.168;27.604;2022-08-19T05:04:58;31.30;;;12.63;;
60426;SDS011;46274;47.168;27.604;2022-08-19T05:11:06;19.33;;;11.15;;
60426;SDS011;46274;47.168;27.604;2022-08-19T05:17:14;22.27;;;10.77;;
60426;SDS011;46274;47.168;27.604;2022-08-19T05:23:36;28.60;;;11.77;;
60426;SDS011;46274;47.168;27.604;2022-08-19T05:29:38;18.90;;;10.40;;
60426;SDS011;46274;47.168;27.604;2022-08-19T05:35:40;23.13;;;10.60;;
60426;SDS011;46274;47.168;27.604;2022-08-19T05:41:42;28.10;;;11.45;;
60426;SDS011;46274;47.168;27.604;2022-08-19T05:47:45;33.65;;;11.50;;
60426;SDS011;46274;47.168;27.604;2022-08-19T05:53:47;27.05;;;11.82;;
60426;SDS011;46274;47.168;27.604;2022-08-19T05:59:49;27.40;;;11.95;;
60426;SDS011;46274;47.168;27.604;2022-08-19T06:05:59;23.80;;;11.65;;
60426;SDS011;46274;47.168;27.604;2022-08-19T06:12:01;32.33;;;11.18;;
60426;SDS011;46274;47.168;27.604;2022-08-19T06:18:04;26.65;;;12.27;;
60426;SDS011;46274;47.168;27.604;2022-08-19T06:24:06;33.15;;;11.90;;
60426;SDS011;46274;47.168;27.604;2022-08-19T06:30:10;29.27;;;10.82;;
60426;SDS011;46274;47.168;27.604;2022-08-19T06:36:27;22.10;;;11.73;;
60426;SDS011;46274;47.168;27.604;2022-08-19T06:42:35;21.35;;;11.43;;
60426;SDS011;46274;47.168;27.604;2022-08-19T06:48:39;23.15;;;11.25;;
60426;SDS011;46274;47.168;27.604;2022-08-19T06:54:46;29.33;;;10.70;;
60426;SDS011;46274;47.168;27.604;2022-08-19T07:00:56;25.42;;;11.82;;
60426;SDS011;46274;47.168;27.604;2022-08-19T07:07:08;27.10;;;11.23;;
60426;SDS011;46274;47.168;27.604;2022-08-19T07:13:21;23.92;;;11.32;;
60426;SDS011;46274;47.168;27.604;2022-08-19T07:19:24;23.90;;;10.73;;
60426;SDS011;46274;47.168;27.604;2022-08-19T07:25:30;23.60;;;11.32;;
60426;SDS011;46274;47.168;27.604;2022-08-19T07:31:33;19.88;;;11.00;;
60426;SDS011;46274;47.168;27.604;2022-08-19T07:37:38;23.85;;;11.60;;
60426;SDS011;46274;47.168;27.604;2022-08-19T07:43:45;22.23;;;11.05;;
60426;SDS011;46274;47.168;27.604;2022-08-19T07:49:48;29.27;;;11.25;;
60426;SDS011;46274;47.168;27.604;2022-08-19T08:12:52;31.88;;;11.60;;
60426;SDS011;46274;47.168;27.604;2022-08-19T08:19:11;24.58;;;11.30;;
60426;SDS011;46274;47.168;27.604;2022-08-19T08:25:26;23.08;;;11.75;;
60426;SDS011;46274;47.168;27.604;2022-08-19T08:31:32;23.77;;;10.60;;
60426;SDS011;46274;47.168;27.604;2022-08-19T08:37:35;34.80;;;12.10;;
60426;SDS011;46274;47.168;27.604;2022-08-19T08:43:38;27.02;;;10.95;;
60426;SDS011;46274;47.168;27.604;2022-08-19T08:50:07;25.85;;;12.00;;
60426;SDS011;46274;47.168;27.604;2022-08-19T08:56:15;26.50;;;12.45;;
60426;SDS011;46274;47.168;27.604;2022-08-19T09:02:19;22.13;;;12.25;;
60426;SDS011;46274;47.168;27.604;2022-08-19T09:14:58;20.65;;;12.75;;
60426;SDS011;46274;47.168;27.604;2022-08-19T09:21:05;23.13;;;12.95;;
60426;SDS011;46274;47.168;27.604;2022-08-19T09:27:08;26.70;;;13.75;;
60426;SDS011;46274;47.168;27.604;2022-08-19T09:33:19;27.15;;;13.23;;
60426;SDS011;46274;47.168;27.604;2022-08-19T09:39:21;22.08;;;12.48;;
60426;SDS011;46274;47.168;27.604;2022-08-19T09:45:23;32.15;;;13.85;;
60426;SDS011;46274;47.168;27.604;2022-08-19T09:51:25;23.98;;;13.05;;
60426;SDS011;46274;47.168;27.604;2022-08-19T09:57:29;21.40;;;12.90;;
60426;SDS011;46274;47.168;27.604;2022-08-19T10:03:31;20.15;;;11.65;;
60426;SDS011;46274;47.168;27.604;2022-08-19T10:09:34;20.95;;;11.52;;
60426;SDS011;46274;47.168;27.604;2022-08-19T10:15:36;19.48;;;12.02;;
60426;SDS011;46274;47.168;27.604;2022-08-19T10:21:48;24.63;;;12.40;;
60426;SDS011;46274;47.168;27.604;2022-08-19T10:27:50;19.40;;;10.75;;
60426;SDS011;46274;47.168;27.604;2022-08-19T10:33:56;21.45;;;11.70;;
60426;SDS011;46274;47.168;27.604;2022-08-19T10:40:03;17.85;;;11.50;;
60426;SDS011;46274;47.168;27.604;2022-08-19T10:46:08;29.05;;;11.82;;
60426;SDS011;46274;47.168;27.604;2022-08-19T10:52:16;19.73;;;11.48;;
60426;SDS011;46274;47.168;27.604;2022-08-19T10:58:39;25.67;;;10.90;;
60426;SDS011;46274;47.168;27.604;2022-08-19T11:04:42;20.85;;;10.73;;
60426;SDS011;46274;47.168;27.604;2022-08-19T11:10:47;23.60;;;10.75;;
60426;SDS011;46274;47.168;27.604;2022-08-19T11:16:51;22.77;;;10.32;;
60426;SDS011;46274;47.168;27.604;2022-08-19T11:22:57;22.92;;;10.90;;
60426;SDS011;46274;47.168;27.604;2022-08-19T11:28:59;20.77;;;10.73;;
60426;SDS011;46274;47.168;27.604;2022-08-19T11:35:01;31.73;;;9.95;;
60426;SDS011;46274;47.168;27.604;2022-08-19T11:41:05;20.40;;;9.60;;
60426;SDS011;46274;47.168;27.604;2022-08-19T11:47:10;36.78;;;13.38;;
60426;SDS011;46274;47.168;27.604;2022-08-19T11:53:12;73.68;;;23.65;;
60426;SDS011;46274;47.168;27.604;2022-08-19T11:59:14;95.88;;;30.00;;
60426;SDS011;46274;47.168;27.604;2022-08-19T12:05:17;90.15;;;27.75;;
60426;SDS011;46274;47.168;27.604;2022-08-19T12:11:19;74.30;;;27.70;;
60426;SDS011;46274;47.168;27.604;2022-08-19T12:17:21;74.03;;;26.08;;
60426;SDS011;46274;47.168;27.604;2022-08-19T12:23:23;66.78;;;24.23;;
60426;SDS011;46274;47.168;27.604;2022-08-19T12:29:25;64.40;;;24.30;;
60426;SDS011;46274;47.168;27.604;2022-08-19T12:35:30;60.63;;;22.23;;
60426;SDS011;46274;47.168;27.604;2022-08-19T12:41:33;60.63;;;22.85;;
60426;SDS011;46274;47.168;27.604;2022-08-19T12:47:34;58.92;;;19.08;;
60426;SDS011;46274;47.168;27.604;2022-08-19T12:53:41;53.80;;;17.83;;
60426;SDS011;46274;47.168;27.604;2022-08-19T12:59:43;45.85;;;17.88;;
60426;SDS011;46274;47.168;27.604;2022-08-19T13:05:45;38.38;;;16.60;;
60426;SDS011;46274;47.168;27.604;2022-08-19T13:11:47;36.08;;;14.40;;
60426;SDS011;46274;47.168;27.604;2022-08-19T13:17:49;38.80;;;13.80;;
60426;SDS011;46274;47.168;27.604;2022-08-19T13:23:53;29.08;;;12.82;;
60426;SDS011;46274;47.168;27.604;2022-08-19T13:29:55;31.70;;;11.48;;
60426;SDS011;46274;47.168;27.604;2022-08-19T13:36:15;27.67;;;10.95;;
60426;SDS011;46274;47.168;27.604;2022-08-19T13:42:17;26.08;;;10.93;;
60426;SDS011;46274;47.168;27.604;2022-08-19T13:48:20;19.08;;;10.27;;
60426;SDS011;46274;47.168;27.604;2022-08-19T13:54:22;20.58;;;10.30;;
60426;SDS011;46274;47.168;27.604;2022-08-19T14:00:26;20.52;;;9.55;;
60426;SDS011;46274;47.168;27.604;2022-08-19T14:06:29;24.70;;;8.85;;
60426;SDS011;46274;47.168;27.604;2022-08-19T14:12:31;17.17;;;8.25;;
60426;SDS011;46274;47.168;27.604;2022-08-19T14:18:33;15.50;;;7.82;;
60426;SDS011;46274;47.168;27.604;2022-08-19T14:24:36;21.33;;;8.15;;
60426;SDS011;46274;47.168;27.604;2022-08-19T14:30:47;16.63;;;7.38;;
60426;SDS011;46274;47.168;27.604;2022-08-19T14:36:55;15.02;;;7.43;;
60426;SDS011;46274;47.168;27.604;2022-08-19T14:42:58;19.10;;;8.07;;
60426;SDS011;46274;47.168;27.604;2022-08-19T14:49:05;24.92;;;7.95;;
60426;SDS011;46274;47.168;27.604;2022-08-19T14:55:09;21.13;;;7.30;;
60426;SDS011;46274;47.168;27.604;2022-08-19T15:01:11;19.45;;;7.43;;
60426;SDS011;46274;47.168;27.604;2022-08-19T15:07:14;17.40;;;6.97;;
60426;SDS011;46274;47.168;27.604;2022-08-19T15:13:16;14.57;;;6.28;;
60426;SDS011;46274;47.168;27.604;2022-08-19T15:19:18;30.00;;;10.95;;
60426;SDS011;46274;47.168;27.604;2022-08-19T15:25:19;47.50;;;19.70;;
60426;SDS011;46274;47.168;27.604;2022-08-19T15:31:22;63.28;;;22.58;;
60426;SDS011;46274;47.168;27.604;2022-08-19T15:37:29;59.83;;;22.95;;
60426;SDS011;46274;47.168;27.604;2022-08-19T15:43:31;59.90;;;25.10;;
60426;SDS011;46274;47.168;27.604;2022-08-19T15:49:33;61.22;;;26.15;;
60426;SDS011;46274;47.168;27.604;2022-08-19T15:55:36;67.30;;;26.65;;
60426;SDS011;46274;47.168;27.604;2022-08-19T16:01:43;61.60;;;29.42;;
60426;SDS011;46274;47.168;27.604;2022-08-19T16:08:04;65.78;;;29.42;;
60426;SDS011;46274;47.168;27.604;2022-08-19T16:14:07;67.97;;;29.85;;
60426;SDS011;46274;47.168;27.604;2022-08-19T16:20:09;79.68;;;32.33;;
60426;SDS011;46274;47.168;27.604;2022-08-19T16:26:12;93.88;;;36.78;;
60426;SDS011;46274;47.168;27.604;2022-08-19T16:32:15;79.00;;;34.22;;
60426;SDS011;46274;47.168;27.604;2022-08-19T16:38:17;83.63;;;33.10;;
60426;SDS011;46274;47.168;27.604;2022-08-19T16:44:19;66.20;;;29.95;;
60426;SDS011;46274;47.168;27.604;2022-08-19T16:50:21;63.40;;;28.13;;
60426;SDS011;46274;47.168;27.604;2022-08-19T16:56:44;60.40;;;26.52;;
60426;SDS011;46274;47.168;27.604;2022-08-19T17:02:46;71.65;;;29.85;;
60426;SDS011;46274;47.168;27.604;2022-08-19T17:08:49;57.35;;;27.38;;
60426;SDS011;46274;47.168;27.604;2022-08-19T17:14:51;62.85;;;27.05;;
60426;SDS011;46274;47.168;27.604;2022-08-19T17:20:53;75.53;;;30.20;;
60426;SDS011;46274;47.168;27.604;2022-08-19T17:26:57;86.75;;;27.85;;
60426;SDS011;46274;47.168;27.604;2022-08-19T17:32:58;72.90;;;29.55;;
60426;SDS011;46274;47.168;27.604;2022-08-19T17:39:00;71.28;;;27.88;;
60426;SDS011;46274;47.168;27.604;2022-08-19T17:45:04;62.85;;;27.05;;
60426;SDS011;46274;47.168;27.604;2022-08-19T17:57:33;74.60;;;27.27;;
60426;SDS011;46274;47.168;27.604;2022-08-19T18:03:34;77.53;;;25.55;;
60426;SDS011;46274;47.168;27.604;2022-08-19T18:09:38;61.20;;;24.08;;
60426;SDS011;46274;47.168;27.604;2022-08-19T18:15:43;61.35;;;22.70;;
60426;SDS011;46274;47.168;27.604;2022-08-19T18:21:44;56.40;;;23.95;;
60426;SDS011;46274;47.168;27.604;2022-08-19T18:27:47;58.45;;;21.45;;
60426;SDS011;46274;47.168;27.604;2022-08-19T18:33:49;60.97;;;22.67;;
60426;SDS011;46274;47.168;27.604;2022-08-19T18:39:53;55.33;;;22.27;;
60426;SDS011;46274;47.168;27.604;2022-08-19T18:46:13;78.30;;;24.00;;
60426;SDS011;46274;47.168;27.604;2022-08-19T18:52:37;61.53;;;24.77;;
60426;SDS011;46274;47.168;27.604;2022-08-19T18:58:40;62.00;;;25.80;;
60426;SDS011;46274;47.168;27.604;2022-08-19T19:04:43;65.47;;;24.42;;
60426;SDS011;46274;47.168;27.604;2022-08-19T19:10:45;60.30;;;24.15;;
60426;SDS011;46274;47.168;27.604;2022-08-19T19:16:51;57.53;;;22.60;;
60426;SDS011;46274;47.168;27.604;2022-08-19T19:22:53;51.22;;;23.27;;
60426;SDS011;46274;47.168;27.604;2022-08-19T19:28:58;55.75;;;23.50;;
60426;SDS011;46274;47.168;27.604;2022-08-19T19:35:00;51.47;;;23.00;;
60426;SDS011;46274;47.168;27.604;2022-08-19T19:41:02;52.42;;;22.77;;
60426;SDS011;46274;47.168;27.604;2022-08-19T19:47:05;56.90;;;22.85;;
60426;SDS011;46274;47.168;27.604;2022-08-19T19:53:07;51.00;;;22.27;;
60426;SDS011;46274;47.168;27.604;2022-08-19T19:59:08;51.13;;;21.88;;
60426;SDS011;46274;47.168;27.604;2022-08-19T20:05:11;44.97;;;20.10;;
60426;SDS011;46274;47.168;27.604;2022-08-19T20:11:23;44.03;;;20.50;;
60426;SDS011;46274;47.168;27.604;2022-08-19T20:17:33;50.03;;;20.67;;
60426;SDS011;46274;47.168;27.604;2022-08-19T20:23:42;50.70;;;22.33;;
60426;SDS011;46274;47.168;27.604;2022-08-19T20:30:08;43.50;;;21.33;;
60426;SDS011;46274;47.168;27.604;2022-08-19T20:36:19;40.47;;;19.65;;
60426;SDS011;46274;47.168;27.604;2022-08-19T20:42:21;43.17;;;20.33;;
60426;SDS011;46274;47.168;27.604;2022-08-19T20:48:23;41.50;;;20.02;;
60426;SDS011;46274;47.168;27.604;2022-08-19T20:54:25;43.92;;;19.75;;
60426;SDS011;46274;47.168;27.604;2022-08-19T21:00:27;43.95;;;19.58;;
60426;SDS011;46274;47.168;27.604;2022-08-19T21:06:30;37.72;;;18.55;;
60426;SDS011;46274;47.168;27.604;2022-08-19T21:12:32;43.10;;;20.10;;
60426;SDS011;46274;47.168;27.604;2022-08-19T21:18:34;39.85;;;17.70;;
60426;SDS011;46274;47.168;27.604;2022-08-19T21:24:36;37.40;;;17.55;;
60426;SDS011;46274;47.168;27.604;2022-08-19T21:30:38;37.45;;;18.30;;
60426;SDS011;46274;47.168;27.604;2022-08-19T21:36:41;34.35;;;17.38;;
60426;SDS011;46274;47.168;27.604;2022-08-19T21:42:43;38.47;;;17.35;;
60426;SDS011;46274;47.168;27.604;2022-08-19T21:48:46;33.92;;;16.77;;
60426;SDS011;46274;47.168;27.604;2022-08-19T21:54:48;36.60;;;17.20;;
60426;SDS011;46274;47.168;27.604;2022-08-19T22:00:50;32.92;;;16.60;;
60426;SDS011;46274;47.168;27.604;2022-08-19T22:06:52;34.70;;;16.58;;
60426;SDS011;46274;47.168;27.604;2022-08-19T22:12:54;35.05;;;16.80;;
60426;SDS011;46274;47.168;27.604;2022-08-19T22:18:56;33.58;;;16.20;;
60426;SDS011;46274;47.168;27.604;2022-08-19T22:25:11;31.55;;;15.63;;
60426;SDS011;46274;47.168;27.604;2022-08-19T22:31:32;33.15;;;16.00;;
60426;SDS011;46274;47.168;27.604;2022-08-19T22:37:34;29.75;;;15.27;;
60426;SDS011;46274;47.168;27.604;2022-08-19T22:43:35;29.60;;;16.00;;
60426;SDS011;46274;47.168;27.604;2022-08-19T22:49:37;30.48;;;14.85;;
60426;SDS011;46274;47.168;27.604;2022-08-19T22:55:39;29.73;;;14.90;;
60426;SDS011;46274;47.168;27.604;2022-08-19T23:01:41;26.23;;;14.50;;
60426;SDS011;46274;47.168;27.604;2022-08-19T23:07:43;32.28;;;15.13;;
60426;SDS011;46274;47.168;27.604;2022-08-19T23:13:52;24.70;;;13.55;;
60426;SDS011;46274;47.168;27.604;2022-08-19T23:19:54;28.50;;;14.82;;
60426;SDS011;46274;47.168;27.604;2022-08-19T23:25:56;30.10;;;14.55;;
60426;SDS011;46274;47.168;27.604;2022-08-19T23:31:57;25.90;;;13.65;;
60426;SDS011;46274;47.168;27.604;2022-08-19T23:37:59;26.13;;;13.25;;
60426;SDS011;46274;47.168;27.604;2022-08-19T23:44:04;28.95;;;15.05;;
60426;SDS011;46274;47.168;27.604;2022-08-19T23:50:15;28.88;;;13.65;;
60426;SDS011;46274;47.168;27.604;2022-08-19T23:56:16;25.25;;;14.07;;
